createdAt,value
2022-12-18T00:00:32.923Z,-4.19
2022-12-18T00:04:21.928Z,-4.26
2022-12-18T00:08:11.915Z,-4.32
2022-12-18T00:11:24.050Z,-4.48
2022-12-18T00:15:05.556Z,-4.43
2022-12-18T00:18:43.174Z,-4.42
2022-12-18T00:22:21.063Z,-4.46
2022-12-18T00:26:02.324Z,-4.51
2022-12-18T00:29:42.581Z,-4.43
2022-12-18T00:33:16.999Z,-4.55
2022-12-18T00:36:55.855Z,-4.67
2022-12-18T00:40:13.632Z,-4.76
2022-12-18T00:43:37.131Z,-4.71
2022-12-18T00:47:04.906Z,-4.71
2022-12-18T00:50:29.643Z,-4.69
2022-12-18T00:54:21.228Z,-4.62
2022-12-18T00:58:02.908Z,-4.68
2022-12-18T01:01:24.896Z,-4.57
2022-12-18T01:04:58.367Z,-4.58
2022-12-18T01:08:24.770Z,-4.46
2022-12-18T01:11:56.451Z,-4.59
2022-12-18T01:15:30.725Z,-4.68
2022-12-18T01:19:11.554Z,-4.51
2022-12-18T01:22:42.703Z,-4.59
2022-12-18T01:26:48.986Z,-4.64
2022-12-18T01:30:16.982Z,-4.76
2022-12-18T01:33:54.306Z,-4.60
2022-12-18T01:36:58.049Z,-4.61
2022-12-18T01:40:00.810Z,-4.57
2022-12-18T01:43:47.576Z,-4.60
2022-12-18T01:47:04.977Z,-4.47
2022-12-18T01:50:44.669Z,-4.48
2022-12-18T01:54:13.981Z,-4.40
2022-12-18T01:57:33.594Z,-4.29
2022-12-18T02:01:16.950Z,-4.25
2022-12-18T02:05:14.218Z,-4.30
2022-12-18T02:09:13.768Z,-4.46
2022-12-18T02:13:16.789Z,-4.57
2022-12-18T02:17:05.150Z,-4.55
2022-12-18T02:20:37.664Z,-4.77
2022-12-18T02:24:47.557Z,-4.84
2022-12-18T02:28:29.465Z,-4.99
2022-12-18T02:31:57.424Z,-5.05
2022-12-18T02:35:42.785Z,-4.99
2022-12-18T02:39:15.410Z,-5.12
2022-12-18T02:42:44.216Z,-5.21
2022-12-18T02:46:26.995Z,-5.25
2022-12-18T02:50:06.941Z,-5.21
2022-12-18T02:54:00.264Z,-5.10
2022-12-18T02:57:41.061Z,-4.91
2022-12-18T03:01:18.465Z,-4.94
2022-12-18T03:05:15.634Z,-4.89
2022-12-18T03:08:52.414Z,-4.91
2022-12-18T03:12:32.793Z,-4.93
2022-12-18T03:16:01.544Z,-4.88
2022-12-18T03:19:25.741Z,-4.77
2022-12-18T03:22:54.865Z,-4.76
2022-12-18T03:26:36.519Z,-4.78
2022-12-18T03:30:16.179Z,-4.73
2022-12-18T03:34:01.074Z,-4.72
2022-12-18T03:37:56.972Z,-4.70
2022-12-18T03:41:34.035Z,-4.68
2022-12-18T03:45:16.778Z,-4.64
2022-12-18T03:48:48.699Z,-4.55
2022-12-18T03:52:38.460Z,-4.42
2022-12-18T03:55:44.093Z,-4.36
2022-12-18T03:59:28.523Z,-4.36
2022-12-18T04:03:12.592Z,-4.42
2022-12-18T04:06:54.560Z,-4.55
2022-12-18T04:10:02.865Z,-4.66
2022-12-18T04:13:36.401Z,-4.84
2022-12-18T04:17:19.310Z,-4.93
2022-12-18T04:20:53.774Z,-5.02
2022-12-18T04:24:23.473Z,-5.16
2022-12-18T04:27:58.963Z,-5.21
2022-12-18T04:31:44.225Z,-5.28
2022-12-18T04:34:52.633Z,-5.28
2022-12-18T04:38:28.380Z,-5.44
2022-12-18T04:42:00.022Z,-5.55
2022-12-18T04:45:24.659Z,-5.60
2022-12-18T04:49:02.532Z,-5.62
2022-12-18T04:52:33.431Z,-5.71
2022-12-18T04:55:36.819Z,-5.58
2022-12-18T04:59:06.241Z,-5.71
2022-12-18T05:02:40.471Z,-5.76
2022-12-18T05:05:46.930Z,-5.78
2022-12-18T05:09:04.603Z,-5.86
2022-12-18T05:12:59.984Z,-5.92
2022-12-18T05:16:43.304Z,-5.96
2022-12-18T05:20:39.612Z,-5.92
2022-12-18T05:24:00.815Z,-5.96
2022-12-18T05:27:29.580Z,-5.96
2022-12-18T05:31:05.588Z,-5.97
2022-12-18T05:34:40.600Z,-6.04
2022-12-18T05:38:14.825Z,-6.06
2022-12-18T05:41:47.736Z,-6.14
2022-12-18T05:45:07.159Z,-6.17
2022-12-18T05:48:43.907Z,-6.19
2022-12-18T05:52:22.405Z,-6.12
2022-12-18T05:55:50.270Z,-6.19
2022-12-18T05:59:09.139Z,-6.18
2022-12-18T06:02:28.051Z,-6.28
2022-12-18T06:06:02.157Z,-6.27
2022-12-18T06:09:44.016Z,-6.36
2022-12-18T06:13:14.523Z,-6.32
2022-12-18T06:16:34.558Z,-6.38
2022-12-18T06:20:09.243Z,-6.43
2022-12-18T06:23:38.257Z,-6.39
2022-12-18T06:26:44.307Z,-6.41
2022-12-18T06:30:12.483Z,-6.41
2022-12-18T06:33:55.532Z,-6.39
2022-12-18T06:37:12.860Z,-6.46
2022-12-18T06:40:56.595Z,-6.40
2022-12-18T06:44:13.678Z,-6.44
2022-12-18T06:47:42.614Z,-6.41
2022-12-18T06:51:14.284Z,-6.44
2022-12-18T06:55:09.413Z,-6.35
2022-12-18T06:58:15.957Z,-6.27
2022-12-18T07:02:19.527Z,-6.31
2022-12-18T07:05:51.856Z,-6.26
2022-12-18T07:09:10.729Z,-6.29
2022-12-18T07:12:34.421Z,-6.10
2022-12-18T07:16:40.002Z,-6.12
2022-12-18T07:20:27.184Z,-5.97
2022-12-18T07:23:49.491Z,-5.91
2022-12-18T07:27:14.158Z,-5.83
2022-12-18T07:30:39.516Z,-5.79
2022-12-18T07:34:29.365Z,-5.72
2022-12-18T07:38:02.765Z,-5.65
2022-12-18T07:41:14.273Z,-5.48
2022-12-18T07:45:03.217Z,-5.40
2022-12-18T07:49:13.165Z,-5.23
2022-12-18T07:52:18.426Z,-5.12
2022-12-18T07:56:29.639Z,-5.06
2022-12-18T07:59:57.050Z,-5.02
2022-12-18T08:03:43.353Z,-4.95
2022-12-18T08:07:02.991Z,-4.80
2022-12-18T08:10:09.027Z,-4.58
2022-12-18T08:13:43.904Z,-4.54
2022-12-18T08:17:24.745Z,-4.40
2022-12-18T08:20:53.595Z,-4.28
2022-12-18T08:24:03.538Z,-4.24
2022-12-18T08:28:11.623Z,-4.14
2022-12-18T08:31:32.957Z,-4.04
2022-12-18T08:35:17.556Z,-3.94
2022-12-18T08:38:53.578Z,-3.89
2022-12-18T08:42:32.389Z,-3.83
2022-12-18T08:46:00.763Z,-3.75
2022-12-18T08:49:07.203Z,-3.69
2022-12-18T08:52:37.012Z,-3.54
2022-12-18T08:56:10.962Z,-3.45
2022-12-18T08:59:29.898Z,-3.36
2022-12-18T09:03:20.586Z,-3.31
2022-12-18T09:06:45.955Z,-3.26
2022-12-18T09:10:24.715Z,-3.25
2022-12-18T09:13:48.046Z,-3.16
2022-12-18T09:17:43.525Z,-3.04
2022-12-18T09:21:13.969Z,-2.92
2022-12-18T09:24:31.710Z,-2.80
2022-12-18T09:27:35.898Z,-2.71
2022-12-18T09:31:09.048Z,-2.65
2022-12-18T09:34:32.085Z,-2.47
2022-12-18T09:37:55.677Z,-2.39
2022-12-18T09:41:33.644Z,-2.32
2022-12-18T09:45:04.873Z,-2.22
2022-12-18T09:48:50.066Z,-2.09
2022-12-18T09:52:35.599Z,-2.04
2022-12-18T09:55:55.892Z,-1.97
2022-12-18T09:59:37.484Z,-1.86
2022-12-18T10:03:34.920Z,-1.89
2022-12-18T10:07:09.436Z,-1.72
2022-12-18T10:10:37.982Z,-1.60
2022-12-18T10:14:40.094Z,-1.52
2022-12-18T10:18:21.675Z,-1.43
2022-12-18T10:21:41.377Z,-1.20
2022-12-18T10:25:00.155Z,-1.11
2022-12-18T10:28:14.660Z,-1.08
2022-12-18T10:31:25.083Z,-1.13
2022-12-18T10:34:28.098Z,-1.15
2022-12-18T10:37:35.627Z,-1.11
2022-12-18T10:41:00.358Z,-1.03
2022-12-18T10:44:37.733Z,-0.92
2022-12-18T10:47:51.291Z,-0.79
2022-12-18T10:51:21.600Z,-0.78
2022-12-18T10:54:54.232Z,-0.77
2022-12-18T10:58:33.870Z,-0.71
2022-12-18T11:01:59.828Z,-0.58
2022-12-18T11:05:42.319Z,-0.47
2022-12-18T11:09:23.947Z,-0.31
2022-12-18T11:12:29.723Z,-0.15
2022-12-18T11:15:34.522Z,-0.07
2022-12-18T11:18:39.098Z,0.05
2022-12-18T11:21:57.273Z,0.34
2022-12-18T11:28:39.131Z,1.33
2022-12-18T11:31:43.114Z,1.28
2022-12-18T11:35:00.673Z,0.99
2022-12-18T11:38:19.933Z,0.92
2022-12-18T11:42:13.055Z,0.95
2022-12-18T11:45:19.403Z,1.03
2022-12-18T11:48:39.092Z,1.05
2022-12-18T11:52:37.298Z,0.93
2022-12-18T11:55:47.875Z,1.19
2022-12-18T11:59:21.288Z,1.15
2022-12-18T12:02:35.063Z,1.35
2022-12-18T12:05:57.248Z,1.09
2022-12-18T12:09:29.039Z,1.22
2022-12-18T12:12:51.227Z,1.11
2022-12-18T12:16:11.198Z,0.96
2022-12-18T12:20:09.993Z,0.91
2022-12-18T12:27:36.535Z,1.19
2022-12-18T12:31:38.492Z,1.24
2022-12-18T12:43:26.806Z,1.54
2022-12-18T12:46:48.494Z,1.40
2022-12-18T12:50:20.631Z,1.47
2022-12-18T12:53:49.481Z,1.49
2022-12-18T12:58:29.457Z,1.45
2022-12-18T13:02:17.278Z,1.45
2022-12-18T13:06:15.652Z,1.40
2022-12-18T13:10:25.713Z,1.52
2022-12-18T13:13:59.720Z,1.69
2022-12-18T13:17:38.366Z,1.82
2022-12-18T13:21:30.730Z,1.95
2022-12-18T13:25:37.618Z,2.15
2022-12-18T13:29:16.560Z,2.57
2022-12-18T13:32:42.768Z,2.73
2022-12-18T13:36:35.070Z,2.90
2022-12-18T13:40:45.122Z,2.16
2022-12-18T13:44:40.907Z,2.21
2022-12-18T13:48:27.604Z,2.13
2022-12-18T13:52:23.001Z,2.05
2022-12-18T13:55:47.289Z,1.91
2022-12-18T13:59:17.533Z,1.87
2022-12-18T14:03:02.170Z,1.59
2022-12-18T14:06:40.845Z,1.30
2022-12-18T14:13:43.535Z,0.98
2022-12-18T14:17:01.063Z,0.78
2022-12-18T14:20:36.717Z,0.60
2022-12-18T14:24:19.787Z,0.33
2022-12-18T14:28:10.580Z,0.14
2022-12-18T14:31:38.381Z,-0.04
2022-12-18T14:35:15.200Z,-0.25
2022-12-18T14:38:55.907Z,-0.54
2022-12-18T14:42:23.551Z,-0.83
2022-12-18T14:45:43.860Z,-1.01
2022-12-18T14:49:25.230Z,-1.17
2022-12-18T14:52:49.655Z,-1.32
2022-12-18T14:56:21.153Z,-1.53
2022-12-18T15:00:09.459Z,-1.78
2022-12-18T15:03:48.902Z,-1.99
2022-12-18T15:07:25.337Z,-2.18
2022-12-18T15:11:01.443Z,-2.37
2022-12-18T15:14:42.780Z,-2.54
2022-12-18T15:18:22.187Z,-2.68
2022-12-18T15:21:59.112Z,-2.83
2022-12-18T15:25:40.651Z,-2.96
2022-12-18T15:29:00.995Z,-3.15
2022-12-18T15:32:31.011Z,-3.22
2022-12-18T15:36:10.385Z,-3.33
2022-12-18T15:39:42.768Z,-3.40
2022-12-18T15:43:30.677Z,-3.47
2022-12-18T15:50:49.130Z,-3.62
2022-12-18T15:58:37.963Z,-3.80
2022-12-18T16:02:23.781Z,-3.86
2022-12-18T16:06:04.198Z,-3.91
2022-12-18T16:09:44.424Z,-4.01
2022-12-18T16:13:21.856Z,-4.08
2022-12-18T16:17:30.070Z,-4.12
2022-12-18T16:21:03.001Z,-4.18
2022-12-18T16:24:39.643Z,-4.21
2022-12-18T16:28:26.300Z,-4.30
2022-12-18T16:32:02.257Z,-4.33
2022-12-18T16:35:32.003Z,-4.31
2022-12-18T16:38:57.608Z,-4.38
2022-12-18T16:42:36.630Z,-4.43
2022-12-18T16:46:00.050Z,-4.37
2022-12-18T16:49:04.607Z,-4.40
2022-12-18T16:52:39.100Z,-4.41
2022-12-18T16:56:14.652Z,-4.46
2022-12-18T16:59:36.881Z,-4.58
2022-12-18T17:03:11.957Z,-4.53
2022-12-18T17:06:53.132Z,-4.59
2022-12-18T17:10:21.388Z,-4.64
2022-12-18T17:13:56.096Z,-4.70
2022-12-18T17:17:27.479Z,-4.70
2022-12-18T17:20:46.094Z,-4.71
2022-12-18T17:24:21.937Z,-4.70
2022-12-18T17:27:55.145Z,-4.89
2022-12-18T17:31:42.218Z,-4.94
2022-12-18T17:35:13.562Z,-4.90
2022-12-18T17:39:06.927Z,-5.01
2022-12-18T17:42:49.191Z,-5.06
2022-12-18T17:50:17.544Z,-5.08
2022-12-18T17:54:02.845Z,-5.16
2022-12-18T17:58:35.558Z,-5.15
2022-12-18T18:02:27.521Z,-5.21
2022-12-18T18:06:34.899Z,-5.14
2022-12-18T18:10:19.755Z,-5.15
2022-12-18T18:18:16.694Z,-5.29
2022-12-18T18:21:52.865Z,-5.27
2022-12-18T18:25:31.797Z,-5.26
2022-12-18T18:36:37.026Z,-5.33
2022-12-18T18:41:17.595Z,-5.44
2022-12-18T18:45:25.321Z,-5.54
2022-12-18T18:48:54.749Z,-5.59
2022-12-18T18:52:25.792Z,-5.55
2022-12-18T19:03:29.019Z,-5.52
2022-12-18T19:07:01.801Z,-5.57
2022-12-18T19:10:25.609Z,-5.64
2022-12-18T19:17:50.010Z,-5.67
2022-12-18T19:21:34.938Z,-5.60
2022-12-18T19:25:12.480Z,-5.72
2022-12-18T19:28:38.674Z,-5.71
2022-12-18T19:31:58.646Z,-5.71
2022-12-18T19:35:25.872Z,-5.81
2022-12-18T19:39:16.471Z,-5.79
2022-12-18T19:42:38.842Z,-5.79
2022-12-18T19:46:24.398Z,-5.75
2022-12-18T19:49:57.382Z,-5.84
2022-12-18T19:53:41.753Z,-5.81
2022-12-18T19:56:53.628Z,-5.81
2022-12-18T20:00:28.967Z,-5.92
2022-12-18T20:04:09.257Z,-5.99
2022-12-18T20:07:38.513Z,-5.98
2022-12-18T20:11:23.905Z,-5.98
2022-12-18T20:18:41.044Z,-5.91
2022-12-18T20:22:11.354Z,-6.00
2022-12-18T20:26:03.637Z,-6.08
2022-12-18T20:29:38.437Z,-6.10
2022-12-18T20:33:30.146Z,-6.01
2022-12-18T20:36:50.853Z,-6.06
2022-12-18T20:40:31.968Z,-6.10
2022-12-18T20:44:20.650Z,-6.00
2022-12-18T20:47:37.126Z,-6.15
2022-12-18T20:51:10.512Z,-6.17
2022-12-18T20:54:51.663Z,-6.21
2022-12-18T20:58:27.151Z,-6.23
2022-12-18T21:02:06.165Z,-6.19
2022-12-18T21:05:41.565Z,-6.15
2022-12-18T21:09:00.175Z,-6.17
2022-12-18T21:12:42.700Z,-6.08
2022-12-18T21:16:11.189Z,-6.07
2022-12-18T21:19:49.822Z,-6.01
2022-12-18T21:23:20.332Z,-6.08
2022-12-18T21:26:56.581Z,-6.07
2022-12-18T21:30:28.629Z,-6.09
2022-12-18T21:34:05.822Z,-5.99
2022-12-18T21:37:23.936Z,-5.98
2022-12-18T21:40:53.236Z,-5.96
2022-12-18T21:44:25.629Z,-5.90
2022-12-18T21:48:00.002Z,-5.89
2022-12-18T21:51:32.885Z,-5.86
2022-12-18T21:55:00.738Z,-5.76
2022-12-18T21:58:30.684Z,-5.71
2022-12-18T22:02:11.223Z,-5.70
2022-12-18T22:05:28.403Z,-5.70
2022-12-18T22:09:16.710Z,-5.71
2022-12-18T22:12:39.783Z,-5.74
2022-12-18T22:16:15.130Z,-5.71
2022-12-18T22:23:43.849Z,-5.76
2022-12-18T22:27:19.099Z,-5.76
2022-12-18T22:31:01.073Z,-5.77
2022-12-18T22:34:36.925Z,-5.80
2022-12-18T22:38:17.328Z,-5.78
2022-12-18T22:41:53.540Z,-5.84
2022-12-18T22:45:24.021Z,-5.85
2022-12-18T22:48:50.497Z,-5.85
2022-12-18T22:51:55.611Z,-5.81
2022-12-18T22:55:28.510Z,-5.75
2022-12-18T22:58:47.724Z,-5.74
2022-12-18T23:02:36.584Z,-5.67
2022-12-18T23:06:08.811Z,-5.45
2022-12-18T23:09:35.206Z,-5.45
2022-12-18T23:13:03.482Z,-5.48
2022-12-18T23:16:24.091Z,-5.40
2022-12-18T23:20:16.836Z,-5.43
2022-12-18T23:23:56.972Z,-5.45
2022-12-18T23:27:39.649Z,-5.39
2022-12-18T23:31:17.625Z,-5.39
2022-12-18T23:34:45.190Z,-5.34
2022-12-18T23:38:37.301Z,-5.26
2022-12-18T23:42:38.709Z,-5.32
2022-12-18T23:45:57.811Z,-5.19
2022-12-18T23:49:26.044Z,-5.14
2022-12-18T23:52:45.108Z,-5.07
2022-12-18T23:56:09.350Z,-5.04
2022-12-18T23:59:58.392Z,-5.02
